Time;durP1;ratioP1;P1;durP2;ratioP2;P2;SDS_P1;SDS_P2;PMS_P1;PMS_P2;Temp;Humidity;BMP_temperature;BMP_pressure;BME280_temperature;BME280_humidity;BME280_pressure;Samples;Min_cycle;Max_cycle;Signal;HPM_P1;HPM_P2
2021/05/23 00:00:30;;;;;;;2.78;1.10;;;;;;;;;;4877800;29;20048;-79
2021/05/23 00:02:58;;;;;;;4.72;1.10;;;;;;;;;;4878581;29;20500;-81
2021/05/23 00:05:25;;;;;;;2.60;1.20;;;;;;;;;;4878410;29;20032;-79
2021/05/23 00:07:51;;;;;;;2.78;1.20;;;;;;;;;;4878646;29;20128;-79
2021/05/23 00:10:18;;;;;;;3.75;1.35;;;;;;;;;;4878376;29;20021;-81
2021/05/23 00:12:46;;;;;;;4.78;1.30;;;;;;;;;;4878663;29;20103;-61
2021/05/23 00:15:13;;;;;;;5.32;1.42;;;;;;;;;;4878539;29;20081;-79
2021/05/23 00:17:39;;;;;;;5.85;1.63;;;;;;;;;;4860742;29;20041;-62
2021/05/23 00:20:05;;;;;;;3.75;1.60;;;;;;;;;;4877747;29;20029;-81
2021/05/23 00:22:31;;;;;;;3.97;1.40;;;;;;;;;;4878058;29;20029;-80
2021/05/23 00:24:57;;;;;;;3.40;1.38;;;;;;;;;;4877728;29;20025;-78
2021/05/23 00:27:23;;;;;;;6.07;1.60;;;;;;;;;;4877814;29;20079;-82
2021/05/23 00:29:49;;;;;;;4.72;1.75;;;;;;;;;;4877859;29;20025;-80
2021/05/23 00:32:17;;;;;;;6.85;2.00;;;;;;;;;;4878249;29;20037;-73
2021/05/23 00:34:43;;;;;;;4.43;1.73;;;;;;;;;;4877747;29;20048;-80
2021/05/23 00:37:09;;;;;;;4.00;1.70;;;;;;;;;;4877727;29;20029;-66
2021/05/23 00:39:35;;;;;;;3.70;1.63;;;;;;;;;;4877881;29;20025;-79
2021/05/23 00:42:01;;;;;;;4.85;1.60;;;;;;;;;;4877771;29;20024;-81
2021/05/23 00:44:27;;;;;;;2.70;1.40;;;;;;;;;;4877998;29;20438;-81
2021/05/23 00:46:53;;;;;;;2.88;1.55;;;;;;;;;;4877845;29;20065;-81
2021/05/23 00:49:19;;;;;;;3.88;1.90;;;;;;;;;;4877664;29;20041;-81
2021/05/23 00:51:45;;;;;;;3.90;1.48;;;;;;;;;;4877438;29;20041;-81
2021/05/23 00:54:11;;;;;;;4.13;1.40;;;;;;;;;;4877672;29;20362;-78
2021/05/23 00:56:37;;;;;;;8.82;1.90;;;;;;;;;;4877740;29;20125;-80
2021/05/23 00:59:03;;;;;;;3.30;1.50;;;;;;;;;;4877808;29;20064;-81
2021/05/23 01:01:52;;;;;;;4.22;1.52;;;;;;;;;;4878014;29;20076;-81
2021/05/23 01:04:18;;;;;;;5.18;1.60;;;;;;;;;;4801825;29;20126;-81
2021/05/23 01:06:44;;;;;;;3.70;1.60;;;;;;;;;;4802109;29;20086;-81
2021/05/23 01:09:11;;;;;;;2.90;1.75;;;;;;;;;;4801717;29;20063;-80
2021/05/23 01:11:43;;;;;;;5.28;1.70;;;;;;;;;;4802902;29;20039;-82
2021/05/23 01:14:27;;;;;;;5.20;1.80;;;;;;;;;;4802887;29;20058;-82
2021/05/23 01:16:54;;;;;;;4.53;1.67;;;;;;;;;;4802056;29;20542;-82
2021/05/23 01:19:26;;;;;;;4.70;2.00;;;;;;;;;;4801663;29;20038;-82
2021/05/23 01:21:54;;;;;;;3.17;1.70;;;;;;;;;;4800166;29;20055;-81
2021/05/23 01:24:27;;;;;;;3.75;1.42;;;;;;;;;;4801324;29;20392;-82
2021/05/23 01:26:54;;;;;;;3.25;1.42;;;;;;;;;;4801724;29;20091;-81
2021/05/23 01:29:21;;;;;;;4.10;1.33;;;;;;;;;;4786362;29;20079;-82
2021/05/23 01:31:47;;;;;;;3.72;1.60;;;;;;;;;;4802020;29;20088;-78
2021/05/23 01:34:17;;;;;;;3.58;1.67;;;;;;;;;;4801698;29;20050;-67
2021/05/23 01:36:46;;;;;;;3.97;1.63;;;;;;;;;;4801620;29;20050;-66
2021/05/23 01:39:13;;;;;;;4.35;1.85;;;;;;;;;;4801983;29;20071;-67
2021/05/23 01:41:39;;;;;;;3.60;1.48;;;;;;;;;;4850617;29;20059;-65
2021/05/23 01:44:06;;;;;;;3.72;1.60;;;;;;;;;;4877303;29;20029;-80
2021/05/23 01:46:32;;;;;;;6.20;1.70;;;;;;;;;;4860339;29;20041;-68
2021/05/23 01:48:58;;;;;;;7.05;1.73;;;;;;;;;;4877436;29;20111;-72
2021/05/23 01:51:25;;;;;;;4.72;1.73;;;;;;;;;;4876932;29;20056;-81
2021/05/23 01:53:51;;;;;;;3.40;1.73;;;;;;;;;;4860485;29;20041;-81
2021/05/23 01:56:17;;;;;;;6.00;1.83;;;;;;;;;;4877103;29;20041;-82
2021/05/23 01:58:43;;;;;;;5.20;1.40;;;;;;;;;;4876913;29;20117;-77
2021/05/23 02:01:09;;;;;;;5.30;2.10;;;;;;;;;;4877336;29;20062;-78
2021/05/23 02:03:35;;;;;;;3.97;1.65;;;;;;;;;;4877105;29;20489;-63
2021/05/23 02:06:03;;;;;;;4.05;1.90;;;;;;;;;;4877225;29;20619;-81
2021/05/23 02:08:30;;;;;;;7.32;5.22;;;;;;;;;;4877159;29;20393;-68
2021/05/23 02:10:58;;;;;;;13.55;6.63;;;;;;;;;;4877077;29;20025;-80
2021/05/23 02:13:25;;;;;;;8.40;5.90;;;;;;;;;;4876940;29;20096;-73
2021/05/23 02:15:52;;;;;;;10.88;5.75;;;;;;;;;;4877087;29;20025;-68
2021/05/23 02:18:18;;;;;;;6.88;5.15;;;;;;;;;;4880485;29;20029;-81
2021/05/23 02:20:44;;;;;;;8.05;5.88;;;;;;;;;;4880256;29;20033;-67
2021/05/23 02:23:14;;;;;;;10.57;6.13;;;;;;;;;;4880566;29;20052;-67
2021/05/23 02:25:41;;;;;;;6.68;4.30;;;;;;;;;;4880264;29;20040;-79
2021/05/23 02:28:08;;;;;;;5.75;3.60;;;;;;;;;;4879522;29;20430;-75
2021/05/23 02:30:36;;;;;;;4.80;2.10;;;;;;;;;;4876837;29;20029;-81
2021/05/23 02:33:03;;;;;;;5.30;2.78;;;;;;;;;;4877583;29;20167;-70
2021/05/23 02:35:32;;;;;;;4.32;1.92;;;;;;;;;;4876816;29;20025;-80
2021/05/23 02:37:58;;;;;;;4.63;1.85;;;;;;;;;;4877836;29;20541;-81
2021/05/23 02:40:28;;;;;;;5.05;2.50;;;;;;;;;;4879075;29;20029;-80
2021/05/23 02:42:54;;;;;;;2.78;1.90;;;;;;;;;;4880381;29;20025;-81
2021/05/23 02:45:23;;;;;;;4.63;2.10;;;;;;;;;;4880436;29;20053;-82
2021/05/23 02:47:49;;;;;;;3.97;2.17;;;;;;;;;;4879873;29;20037;-81
2021/05/23 02:50:17;;;;;;;7.03;2.42;;;;;;;;;;4862590;29;20048;-76
2021/05/23 02:52:43;;;;;;;4.18;1.90;;;;;;;;;;4879776;29;20045;-71
2021/05/23 02:55:09;;;;;;;3.53;1.70;;;;;;;;;;4879978;29;20021;-77
2021/05/23 02:57:36;;;;;;;4.72;1.80;;;;;;;;;;4879763;29;20064;-80
2021/05/23 03:00:04;;;;;;;2.30;1.42;;;;;;;;;;4879933;29;20057;-71
2021/05/23 03:02:30;;;;;;;4.13;1.67;;;;;;;;;;4879391;29;20040;-77
2021/05/23 03:04:56;;;;;;;6.03;1.88;;;;;;;;;;4879887;29;20058;-68
2021/05/23 03:07:22;;;;;;;5.25;1.60;;;;;;;;;;4879782;29;20489;-64
2021/05/23 03:09:49;;;;;;;3.33;1.73;;;;;;;;;;4879745;29;20504;-81
2021/05/23 03:12:15;;;;;;;4.82;1.90;;;;;;;;;;4879641;29;20028;-82
2021/05/23 03:14:42;;;;;;;4.22;2.00;;;;;;;;;;4879849;29;20029;-74
2021/05/23 03:17:09;;;;;;;4.60;1.60;;;;;;;;;;4879404;29;20036;-81
2021/05/23 03:19:35;;;;;;;3.55;1.48;;;;;;;;;;4879647;29;20080;-82
2021/05/23 03:22:02;;;;;;;2.92;1.80;;;;;;;;;;4879210;29;20393;-77
2021/05/23 03:24:28;;;;;;;3.42;1.77;;;;;;;;;;4879128;29;20045;-79
2021/05/23 03:26:54;;;;;;;5.88;1.52;;;;;;;;;;4879071;29;20087;-81
2021/05/23 03:29:20;;;;;;;2.55;1.30;;;;;;;;;;4879097;29;20037;-82
2021/05/23 03:31:46;;;;;;;2.47;1.20;;;;;;;;;;4879345;29;20036;-80
2021/05/23 03:34:12;;;;;;;2.15;1.60;;;;;;;;;;4878867;29;20100;-64
2021/05/23 03:36:39;;;;;;;5.05;1.60;;;;;;;;;;4879232;29;20083;-83
2021/05/23 03:39:05;;;;;;;4.53;1.55;;;;;;;;;;4879373;29;20047;-83
2021/05/23 03:41:31;;;;;;;3.70;1.77;;;;;;;;;;4879374;29;20242;-82
2021/05/23 03:43:57;;;;;;;4.82;1.92;;;;;;;;;;4879163;29;20108;-82
2021/05/23 03:46:24;;;;;;;6.78;1.70;;;;;;;;;;4878973;29;20055;-83
2021/05/23 03:48:53;;;;;;;3.83;1.70;;;;;;;;;;4879042;29;20426;-82
2021/05/23 03:51:19;;;;;;;4.57;1.77;;;;;;;;;;4878377;29;20045;-82
2021/05/23 03:53:45;;;;;;;5.95;2.10;;;;;;;;;;4879014;29;20029;-82
2021/05/23 03:56:11;;;;;;;4.00;1.70;;;;;;;;;;4879035;29;20129;-78
2021/05/23 03:58:37;;;;;;;6.93;1.80;;;;;;;;;;4878939;29;20025;-83
2021/05/23 04:01:03;;;;;;;2.42;1.50;;;;;;;;;;4878670;29;20509;-82
2021/05/23 04:03:29;;;;;;;3.05;1.40;;;;;;;;;;4878377;29;20029;-83
2021/05/23 04:05:57;;;;;;;4.47;1.55;;;;;;;;;;4878602;29;20018;-83
2021/05/23 04:08:24;;;;;;;5.45;1.60;;;;;;;;;;4878551;29;20033;-81
2021/05/23 04:11:01;;;;;;;7.13;1.50;;;;;;;;;;4878735;29;20025;-77
2021/05/23 04:13:28;;;;;;;5.43;1.63;;;;;;;;;;4878804;29;20029;-83
2021/05/23 04:15:54;;;;;;;3.40;1.52;;;;;;;;;;4878862;29;20036;-84
2021/05/23 04:18:20;;;;;;;3.17;1.42;;;;;;;;;;4878709;29;20025;-72
2021/05/23 04:20:46;;;;;;;4.00;1.70;;;;;;;;;;4861245;29;20045;-66
2021/05/23 04:23:12;;;;;;;4.13;1.77;;;;;;;;;;4862238;29;20465;-73
2021/05/23 04:25:38;;;;;;;3.40;1.60;;;;;;;;;;4861107;29;20144;-74
2021/05/23 04:28:04;;;;;;;2.67;1.50;;;;;;;;;;4877738;29;20861;-73
2021/05/23 04:30:30;;;;;;;4.60;2.03;;;;;;;;;;4878174;29;20097;-80
2021/05/23 04:32:57;;;;;;;3.10;1.40;;;;;;;;;;4878201;29;20347;-71
2021/05/23 04:35:23;;;;;;;5.35;1.70;;;;;;;;;;4878415;29;20040;-81
2021/05/23 04:37:49;;;;;;;3.83;1.50;;;;;;;;;;4878476;29;20052;-66
2021/05/23 04:40:16;;;;;;;2.90;1.48;;;;;;;;;;4877762;29;20386;-79
2021/05/23 04:42:43;;;;;;;4.55;1.38;;;;;;;;;;4878334;29;20557;-62
2021/05/23 04:45:09;;;;;;;5.57;1.65;;;;;;;;;;4878232;29;20033;-82
2021/05/23 04:47:35;;;;;;;5.35;1.52;;;;;;;;;;4860703;29;20462;-83
2021/05/23 04:50:03;;;;;;;4.15;2.03;;;;;;;;;;4877794;29;20052;-79
2021/05/23 04:52:29;;;;;;;4.18;1.70;;;;;;;;;;4877825;29;20493;-71
2021/05/23 04:54:55;;;;;;;6.10;1.50;;;;;;;;;;4877755;29;20029;-80
2021/05/23 04:57:21;;;;;;;3.92;1.50;;;;;;;;;;4877908;29;20076;-76
2021/05/23 04:59:50;;;;;;;2.92;1.40;;;;;;;;;;4862503;29;20040;-73
2021/05/23 05:02:16;;;;;;;7.70;1.60;;;;;;;;;;4894875;29;20060;-73
2021/05/23 05:04:42;;;;;;;3.28;1.35;;;;;;;;;;4897214;29;20041;-71
2021/05/23 05:07:08;;;;;;;5.57;1.63;;;;;;;;;;4896818;29;20044;-82
2021/05/23 05:09:34;;;;;;;8.85;1.75;;;;;;;;;;4897371;29;20103;-75
2021/05/23 05:12:00;;;;;;;3.78;1.70;;;;;;;;;;4879800;29;20044;-84
2021/05/23 05:14:26;;;;;;;5.28;1.60;;;;;;;;;;4897065;29;20039;-86
2021/05/23 05:16:53;;;;;;;5.03;1.42;;;;;;;;;;4896814;29;20107;-79
2021/05/23 05:19:19;;;;;;;6.45;1.30;;;;;;;;;;4897382;29;20056;-83
2021/05/23 05:21:45;;;;;;;3.58;1.30;;;;;;;;;;4880407;29;20055;-73
2021/05/23 05:24:11;;;;;;;3.92;1.30;;;;;;;;;;4899738;29;20130;-72
2021/05/23 05:26:37;;;;;;;4.28;1.45;;;;;;;;;;4897568;29;20322;-86
2021/05/23 05:29:04;;;;;;;3.13;1.23;;;;;;;;;;4897018;29;20021;-75
2021/05/23 05:31:30;;;;;;;3.05;1.58;;;;;;;;;;4895697;29;20033;-62
2021/05/23 05:33:56;;;;;;;2.33;1.30;;;;;;;;;;4896174;29;20116;-83
2021/05/23 05:36:22;;;;;;;7.20;1.38;;;;;;;;;;4896574;29;20040;-77
2021/05/23 05:38:49;;;;;;;4.03;1.65;;;;;;;;;;4896239;29;20048;-72
2021/05/23 05:41:15;;;;;;;3.47;1.60;;;;;;;;;;4896527;29;20050;-79
2021/05/23 05:43:41;;;;;;;3.72;2.38;;;;;;;;;;4896518;29;20037;-83
2021/05/23 05:46:07;;;;;;;5.22;1.90;;;;;;;;;;4896352;29;20033;-76
2021/05/23 05:48:34;;;;;;;4.90;2.05;;;;;;;;;;4896249;29;20469;-80
2021/05/23 05:51:01;;;;;;;3.78;1.60;;;;;;;;;;4895545;29;20049;-69
2021/05/23 05:53:27;;;;;;;4.57;1.30;;;;;;;;;;4899478;29;20063;-78
2021/05/23 05:55:53;;;;;;;4.35;1.35;;;;;;;;;;4899457;29;20040;-70
2021/05/23 05:58:19;;;;;;;2.15;1.30;;;;;;;;;;4899440;29;20054;-71
2021/05/23 06:00:45;;;;;;;6.40;1.60;;;;;;;;;;4899509;29;20025;-73
2021/05/23 06:03:11;;;;;;;3.10;1.25;;;;;;;;;;4898225;29;20032;-73
2021/05/23 06:05:37;;;;;;;5.30;1.52;;;;;;;;;;4899456;29;20024;-74
2021/05/23 06:08:03;;;;;;;4.43;1.40;;;;;;;;;;4899159;29;20489;-72
2021/05/23 06:10:29;;;;;;;4.95;1.35;;;;;;;;;;4899577;29;20060;-65
2021/05/23 06:12:55;;;;;;;3.47;1.23;;;;;;;;;;4899870;29;20063;-75
2021/05/23 06:15:21;;;;;;;4.53;1.48;;;;;;;;;;4895363;29;20096;-87
2021/05/23 06:17:48;;;;;;;5.88;1.55;;;;;;;;;;4878497;29;20064;-71
2021/05/23 06:20:14;;;;;;;4.30;2.10;;;;;;;;;;4893618;29;20025;-69
2021/05/23 06:22:40;;;;;;;4.28;1.83;;;;;;;;;;4880253;29;20037;-76
2021/05/23 06:25:07;;;;;;;4.40;1.95;;;;;;;;;;4880118;29;20029;-79
2021/05/23 06:27:33;;;;;;;5.88;2.28;;;;;;;;;;4880306;29;20053;-73
2021/05/23 06:29:59;;;;;;;8.98;2.20;;;;;;;;;;4879641;29;20112;-75
2021/05/23 06:32:25;;;;;;;5.35;2.08;;;;;;;;;;4861462;29;20033;-73
2021/05/23 06:34:51;;;;;;;6.40;2.33;;;;;;;;;;4875835;29;20511;-74
2021/05/23 06:37:17;;;;;;;5.70;2.75;;;;;;;;;;4876313;29;20033;-74
2021/05/23 06:39:43;;;;;;;5.85;2.42;;;;;;;;;;4876138;29;20028;-73
2021/05/23 06:42:09;;;;;;;3.83;1.92;;;;;;;;;;4875848;29;20481;-74
2021/05/23 06:44:35;;;;;;;5.25;1.95;;;;;;;;;;4878864;29;20033;-72
2021/05/23 06:47:02;;;;;;;4.55;2.22;;;;;;;;;;4863138;29;20029;-67
2021/05/23 06:49:28;;;;;;;5.55;2.00;;;;;;;;;;4879915;29;20029;-68
2021/05/23 06:51:55;;;;;;;8.02;2.17;;;;;;;;;;4862380;29;20045;-72
2021/05/23 06:54:21;;;;;;;5.47;2.05;;;;;;;;;;4879851;29;20162;-68
2021/05/23 06:56:47;;;;;;;5.95;2.13;;;;;;;;;;4879754;29;20033;-74
2021/05/23 06:59:13;;;;;;;6.35;2.30;;;;;;;;;;4879559;29;20041;-66
2021/05/23 07:01:39;;;;;;;7.95;2.13;;;;;;;;;;4879255;29;20374;-74
2021/05/23 07:04:05;;;;;;;7.00;2.28;;;;;;;;;;4862175;29;20045;-68
2021/05/23 07:06:31;;;;;;;5.20;2.33;;;;;;;;;;4879467;29;20061;-68
2021/05/23 07:08:57;;;;;;;5.85;2.15;;;;;;;;;;4862442;29;20437;-75
2021/05/23 07:11:24;;;;;;;4.72;2.25;;;;;;;;;;4879648;29;20067;-74
2021/05/23 07:13:50;;;;;;;4.88;2.13;;;;;;;;;;4879522;29;20035;-75
2021/05/23 07:16:16;;;;;;;4.10;2.30;;;;;;;;;;4879245;29;20028;-67
2021/05/23 07:18:43;;;;;;;6.28;2.20;;;;;;;;;;4879099;29;20381;-66
2021/05/23 07:21:09;;;;;;;4.55;2.10;;;;;;;;;;4879125;29;20017;-74
2021/05/23 07:23:35;;;;;;;3.80;2.13;;;;;;;;;;4878898;29;20465;-74
2021/05/23 07:26:01;;;;;;;4.85;2.30;;;;;;;;;;4878887;29;20073;-74
2021/05/23 07:28:27;;;;;;;7.93;4.72;;;;;;;;;;4879027;29;20065;-74
2021/05/23 07:30:53;;;;;;;3.90;2.03;;;;;;;;;;4879033;29;20025;-74
2021/05/23 07:33:19;;;;;;;5.13;2.15;;;;;;;;;;4878769;29;20473;-74
2021/05/23 07:35:46;;;;;;;5.57;2.05;;;;;;;;;;4878524;29;20037;-74
2021/05/23 07:38:12;;;;;;;7.32;2.20;;;;;;;;;;4878636;29;20044;-74
2021/05/23 07:40:38;;;;;;;5.70;2.15;;;;;;;;;;4879049;29;20021;-74
2021/05/23 07:43:04;;;;;;;4.38;1.45;;;;;;;;;;4878802;29;20062;-73
2021/05/23 07:45:31;;;;;;;3.50;1.35;;;;;;;;;;4878877;29;20481;-67
2021/05/23 07:47:57;;;;;;;3.28;1.40;;;;;;;;;;4878549;29;20088;-74
2021/05/23 07:50:24;;;;;;;4.13;1.45;;;;;;;;;;4878411;29;20369;-74
2021/05/23 07:52:50;;;;;;;3.45;1.58;;;;;;;;;;4878554;29;20061;-65
2021/05/23 07:55:16;;;;;;;2.28;1.20;;;;;;;;;;4878457;29;20465;-68
2021/05/23 07:57:42;;;;;;;2.72;1.60;;;;;;;;;;4878419;29;20036;-65
2021/05/23 08:00:08;;;;;;;3.33;1.77;;;;;;;;;;4878250;29;20036;-72
2021/05/23 08:02:35;;;;;;;3.67;1.60;;;;;;;;;;4878275;29;20045;-72
2021/05/23 08:05:01;;;;;;;5.63;1.80;;;;;;;;;;4877938;29;20093;-73
2021/05/23 08:07:27;;;;;;;3.75;2.00;;;;;;;;;;4878168;29;20029;-68
2021/05/23 08:09:53;;;;;;;6.75;1.83;;;;;;;;;;4878083;29;20025;-71
2021/05/23 08:12:20;;;;;;;3.55;1.70;;;;;;;;;;4878279;29;20116;-64
2021/05/23 08:14:46;;;;;;;4.32;1.60;;;;;;;;;;4877703;29;20500;-72
2021/05/23 08:17:12;;;;;;;2.92;1.30;;;;;;;;;;4878230;29;20041;-72
2021/05/23 08:19:39;;;;;;;3.90;1.60;;;;;;;;;;4877840;29;20029;-71
2021/05/23 08:22:05;;;;;;;2.88;1.50;;;;;;;;;;4877484;29;20366;-72
2021/05/23 08:24:32;;;;;;;3.38;1.67;;;;;;;;;;4877310;29;20040;-73
2021/05/23 08:26:58;;;;;;;3.88;1.70;;;;;;;;;;4877755;29;20028;-74
2021/05/23 08:29:28;;;;;;;5.82;2.05;;;;;;;;;;4877874;29;20083;-73
2021/05/23 08:31:54;;;;;;;5.88;2.08;;;;;;;;;;4877905;29;20033;-72
2021/05/23 08:34:20;;;;;;;3.22;1.40;;;;;;;;;;4878094;29;20029;-74
2021/05/23 08:36:46;;;;;;;5.80;1.80;;;;;;;;;;4860451;29;20029;-71
2021/05/23 08:39:12;;;;;;;6.55;1.70;;;;;;;;;;4877934;29;20521;-72
2021/05/23 08:41:38;;;;;;;4.80;1.80;;;;;;;;;;4877512;29;20025;-73
2021/05/23 08:44:05;;;;;;;3.03;1.75;;;;;;;;;;4877725;29;20052;-70
2021/05/23 08:46:32;;;;;;;3.80;1.90;;;;;;;;;;4877878;29;20064;-71
2021/05/23 08:49:00;;;;;;;2.60;1.55;;;;;;;;;;4877915;29;20029;-74
2021/05/23 08:51:26;;;;;;;4.10;1.95;;;;;;;;;;4877408;29;20058;-74
2021/05/23 08:53:52;;;;;;;3.17;1.55;;;;;;;;;;4877634;29;20068;-74
2021/05/23 08:56:18;;;;;;;4.63;1.42;;;;;;;;;;4877574;29;20033;-74
2021/05/23 08:58:44;;;;;;;4.75;1.80;;;;;;;;;;4877485;29;20552;-74
2021/05/23 09:01:11;;;;;;;4.60;1.48;;;;;;;;;;4877399;29;20132;-70
2021/05/23 09:03:37;;;;;;;3.30;1.42;;;;;;;;;;4877628;29;20037;-73
2021/05/23 09:06:03;;;;;;;3.78;1.60;;;;;;;;;;4877310;29;20039;-74
2021/05/23 09:08:30;;;;;;;3.65;1.52;;;;;;;;;;4877604;29;20125;-74
2021/05/23 09:10:58;;;;;;;5.07;1.50;;;;;;;;;;4877455;29;20080;-68
2021/05/23 09:13:30;;;;;;;4.15;1.70;;;;;;;;;;4877358;29;20045;-66
2021/05/23 09:15:57;;;;;;;3.15;1.45;;;;;;;;;;4877327;29;20024;-70
2021/05/23 09:18:23;;;;;;;2.83;1.58;;;;;;;;;;4876997;29;20481;-73
2021/05/23 09:21:00;;;;;;;3.33;1.48;;;;;;;;;;4876768;29;20037;-74
2021/05/23 09:23:26;;;;;;;3.95;1.73;;;;;;;;;;4876521;29;20065;-73
2021/05/23 09:25:52;;;;;;;3.90;1.30;;;;;;;;;;4876903;29;20029;-71
2021/05/23 09:28:29;;;;;;;3.15;1.60;;;;;;;;;;4877156;29;20021;-73
2021/05/23 09:30:55;;;;;;;6.90;1.70;;;;;;;;;;4877081;29;20508;-73
2021/05/23 09:33:21;;;;;;;5.50;1.40;;;;;;;;;;4877025;29;20508;-74
2021/05/23 09:35:47;;;;;;;3.92;1.80;;;;;;;;;;4877288;29;20037;-67
2021/05/23 09:38:14;;;;;;;3.65;1.38;;;;;;;;;;4876854;29;20037;-66
2021/05/23 09:40:42;;;;;;;6.18;1.73;;;;;;;;;;4877435;29;20112;-69
2021/05/23 09:43:09;;;;;;;3.03;1.50;;;;;;;;;;4877346;29;20044;-70
2021/05/23 09:45:43;;;;;;;5.53;1.98;;;;;;;;;;4877045;29;20033;-68
2021/05/23 09:48:16;;;;;;;3.25;1.30;;;;;;;;;;4877006;29;20021;-74
2021/05/23 09:50:43;;;;;;;4.60;1.33;;;;;;;;;;4876771;29;20053;-67
2021/05/23 09:53:26;;;;;;;5.45;1.25;;;;;;;;;;4876891;29;20056;-70
2021/05/23 09:55:52;;;;;;;3.75;1.50;;;;;;;;;;4860019;29;20033;-68
2021/05/23 09:58:22;;;;;;;2.75;1.55;;;;;;;;;;4876761;29;20036;-66
2021/05/23 10:00:48;;;;;;;5.78;1.60;;;;;;;;;;4876746;29;20401;-70
2021/05/23 10:03:21;;;;;;;3.80;1.48;;;;;;;;;;4876932;29;20033;-73
2021/05/23 10:05:47;;;;;;;2.50;1.40;;;;;;;;;;4876627;29;20080;-72
2021/05/23 10:08:14;;;;;;;3.53;1.40;;;;;;;;;;4877017;29;20029;-74
2021/05/23 10:10:40;;;;;;;6.35;1.70;;;;;;;;;;4876983;29;20029;-74
2021/05/23 10:13:06;;;;;;;4.22;1.77;;;;;;;;;;4877199;29;20025;-74
2021/05/23 10:15:32;;;;;;;2.95;1.70;;;;;;;;;;4876564;29;20433;-72
2021/05/23 10:17:58;;;;;;;3.80;1.50;;;;;;;;;;4876822;29;20097;-73
2021/05/23 10:20:28;;;;;;;3.17;1.30;;;;;;;;;;4871094;29;20063;-70
2021/05/23 10:22:55;;;;;;;3.08;1.35;;;;;;;;;;4870187;29;20066;-73
2021/05/23 10:25:21;;;;;;;3.00;1.40;;;;;;;;;;4875870;29;20029;-73
2021/05/23 10:27:48;;;;;;;4.35;1.80;;;;;;;;;;4876563;29;20071;-73
2021/05/23 10:30:15;;;;;;;4.13;1.83;;;;;;;;;;4876681;29;20061;-71
2021/05/23 10:32:43;;;;;;;2.95;1.23;;;;;;;;;;4876735;29;20040;-65
2021/05/23 10:35:13;;;;;;;3.22;1.83;;;;;;;;;;4876665;29;20021;-68
2021/05/23 10:37:40;;;;;;;4.22;2.05;;;;;;;;;;4877437;29;20045;-73
2021/05/23 10:40:26;;;;;;;5.10;1.73;;;;;;;;;;4879818;29;20113;-68
2021/05/23 10:42:57;;;;;;;7.10;3.58;;;;;;;;;;4862966;29;20062;-71
2021/05/23 10:45:28;;;;;;;5.07;1.90;;;;;;;;;;4862734;29;20458;-70
2021/05/23 10:47:55;;;;;;;4.55;1.40;;;;;;;;;;4879955;29;20033;-64
2021/05/23 10:50:31;;;;;;;3.53;1.70;;;;;;;;;;4879403;29;20029;-66
2021/05/23 10:52:58;;;;;;;4.60;1.83;;;;;;;;;;4879329;29;20053;-67
2021/05/23 10:55:25;;;;;;;6.07;2.30;;;;;;;;;;4879790;29;20057;-66
2021/05/23 10:57:54;;;;;;;3.55;1.48;;;;;;;;;;4879588;29;20033;-65
2021/05/23 11:00:20;;;;;;;3.42;2.00;;;;;;;;;;4879310;29;20556;-69
2021/05/23 11:02:47;;;;;;;2.55;1.17;;;;;;;;;;4879496;29;20037;-73
2021/05/23 11:05:29;;;;;;;4.82;2.10;;;;;;;;;;4879728;29;20143;-66
2021/05/23 11:07:55;;;;;;;;;;;;;;;;;;4879619;29;20029;-68
2021/05/23 11:10:23;;;;;;;5.22;2.45;;;;;;;;;;4879312;29;20275;-72
2021/05/23 11:12:56;;;;;;;7.30;1.83;;;;;;;;;;4879494;29;20422;-72
2021/05/23 11:15:23;;;;;;;3.03;1.40;;;;;;;;;;4862224;29;20128;-68
2021/05/23 11:17:50;;;;;;;5.95;2.42;;;;;;;;;;4879334;29;20041;-68
2021/05/23 11:20:20;;;;;;;5.38;2.40;;;;;;;;;;4861845;29;20077;-69
2021/05/23 11:22:54;;;;;;;7.65;3.03;;;;;;;;;;4879328;29;20389;-73
2021/05/23 11:25:21;;;;;;;3.97;1.95;;;;;;;;;;4879021;29;20126;-69
2021/05/23 11:28:03;;;;;;;7.78;1.75;;;;;;;;;;4878859;29;20033;-71
2021/05/23 11:30:29;;;;;;;;;;;;;;;;;;4879051;29;20040;-73
2021/05/23 11:33:01;;;;;;;5.32;2.40;;;;;;;;;;4878992;29;19911;-70
2021/05/23 11:35:27;;;;;;;4.15;1.48;;;;;;;;;;4878622;29;20027;-73
2021/05/23 11:37:55;;;;;;;5.13;1.50;;;;;;;;;;4878662;29;20041;-72
2021/05/23 11:40:21;;;;;;;4.13;2.38;;;;;;;;;;4878592;29;20044;-73
2021/05/23 11:42:48;;;;;;;4.60;2.10;;;;;;;;;;4878946;29;20051;-73
2021/05/23 11:45:33;;;;;;;6.15;2.05;;;;;;;;;;4878608;29;20318;-73
2021/05/23 11:48:02;;;;;;;3.42;1.88;;;;;;;;;;4878493;29;20055;-65
2021/05/23 11:50:29;;;;;;;4.63;2.00;;;;;;;;;;4877559;29;20503;-71
2021/05/23 11:52:57;;;;;;;5.20;2.22;;;;;;;;;;4878685;29;20120;-73
2021/05/23 11:55:24;;;;;;;5.03;1.52;;;;;;;;;;4878510;29;20573;-71
2021/05/23 11:57:51;;;;;;;9.45;2.00;;;;;;;;;;4878456;29;20040;-65
2021/05/23 12:00:22;;;;;;;5.80;2.03;;;;;;;;;;4878504;29;20036;-68
2021/05/23 12:02:57;;;;;;;3.72;2.15;;;;;;;;;;4878588;29;20430;-68
2021/05/23 12:05:24;;;;;;;5.80;2.13;;;;;;;;;;4878170;29;20040;-67
2021/05/23 12:07:52;;;;;;;3.67;2.08;;;;;;;;;;4861349;29;20046;-64
2021/05/23 12:10:24;;;;;;;3.25;1.35;;;;;;;;;;4878441;29;20127;-64
2021/05/23 12:12:50;;;;;;;;;;;;;;;;;;4878547;29;20068;-64
2021/05/23 12:15:20;;;;;;;4.00;1.42;;;;;;;;;;4878376;29;20011;-67
2021/05/23 12:17:56;;;;;;;3.08;1.67;;;;;;;;;;4878246;29;20076;-64
2021/05/23 12:20:23;;;;;;;3.42;1.75;;;;;;;;;;4877940;29;20053;-65
2021/05/23 12:22:51;;;;;;;4.00;1.20;;;;;;;;;;4878128;29;20041;-64
2021/05/23 12:25:19;;;;;;;2.63;1.48;;;;;;;;;;4878142;29;20800;-70
2021/05/23 12:27:46;;;;;;;9.75;1.92;;;;;;;;;;4878164;29;20029;-71
2021/05/23 12:30:15;;;;;;;5.80;1.70;;;;;;;;;;4878104;29;20029;-70
2021/05/23 12:32:57;;;;;;;5.30;1.73;;;;;;;;;;4878082;29;20041;-69
2021/05/23 12:35:28;;;;;;;4.43;1.57;;;;;;;;;;4877806;29;20025;-72
2021/05/23 12:37:57;;;;;;;7.20;1.60;;;;;;;;;;4877271;29;20057;-68
2021/05/23 12:40:26;;;;;;;3.85;1.60;;;;;;;;;;4877518;29;20105;-70
2021/05/23 12:42:52;;;;;;;4.07;2.17;;;;;;;;;;4877890;29;20037;-72
2021/05/23 12:45:19;;;;;;;4.70;1.80;;;;;;;;;;4877791;29;20029;-66
2021/05/23 12:47:49;;;;;;;6.15;2.00;;;;;;;;;;4877531;29;20508;-72
2021/05/23 12:50:15;;;;;;;5.13;1.60;;;;;;;;;;4877385;29;20477;-72
2021/05/23 12:52:51;;;;;;;4.53;1.70;;;;;;;;;;4877428;29;20132;-72
2021/05/23 12:55:18;;;;;;;4.40;1.63;;;;;;;;;;4877446;29;20029;-72
2021/05/23 12:57:53;;;;;;;4.80;2.20;;;;;;;;;;4877481;29;20111;-72
2021/05/23 13:00:20;;;;;;;3.97;2.08;;;;;;;;;;4877293;29;20025;-69
2021/05/23 13:02:47;;;;;;;3.80;1.77;;;;;;;;;;4860417;29;20493;-72
2021/05/23 13:05:16;;;;;;;5.78;1.60;;;;;;;;;;4877490;29;20041;-67
2021/05/23 13:07:43;;;;;;;3.25;1.60;;;;;;;;;;4877218;29;20037;-67
2021/05/23 13:10:13;;;;;;;6.18;2.00;;;;;;;;;;4877433;29;20124;-64
2021/05/23 13:12:40;;;;;;;4.47;1.67;;;;;;;;;;4877519;29;20036;-71
2021/05/23 13:15:07;;;;;;;4.38;1.60;;;;;;;;;;4877467;29;20029;-71
2021/05/23 13:17:37;;;;;;;3.03;1.60;;;;;;;;;;4877408;29;20488;-71
2021/05/23 13:20:04;;;;;;;5.00;2.30;;;;;;;;;;4877277;29;20449;-71
2021/05/23 13:22:31;;;;;;;6.57;2.92;;;;;;;;;;4877157;29;20029;-71
2021/05/23 13:24:57;;;;;;;6.68;3.90;;;;;;;;;;4877119;29;20101;-73
2021/05/23 13:27:23;;;;;;;5.70;2.65;;;;;;;;;;4876894;29;20044;-71
2021/05/23 13:29:50;;;;;;;5.93;2.33;;;;;;;;;;4877228;29;20549;-73
2021/05/23 13:32:16;;;;;;;4.38;2.00;;;;;;;;;;4877259;29;20478;-72
2021/05/23 13:34:43;;;;;;;5.20;2.08;;;;;;;;;;4876848;29;20031;-73
2021/05/23 13:37:09;;;;;;;6.55;2.17;;;;;;;;;;4875889;29;20489;-73
2021/05/23 13:39:36;;;;;;;5.85;2.17;;;;;;;;;;4876203;29;20085;-66
2021/05/23 13:42:02;;;;;;;3.75;1.80;;;;;;;;;;4876827;29;20573;-71
2021/05/23 13:44:28;;;;;;;4.78;1.88;;;;;;;;;;4877095;29;20037;-69
2021/05/23 13:46:54;;;;;;;4.80;2.28;;;;;;;;;;4877189;29;20029;-72
2021/05/23 13:49:21;;;;;;;5.20;1.60;;;;;;;;;;4876621;29;20037;-70
2021/05/23 13:51:47;;;;;;;4.93;1.50;;;;;;;;;;4859787;29;20951;-72
2021/05/23 13:54:14;;;;;;;3.42;1.80;;;;;;;;;;4876553;29;20044;-66
2021/05/23 13:56:40;;;;;;;5.65;1.77;;;;;;;;;;4876458;29;20037;-71
2021/05/23 13:59:07;;;;;;;5.55;1.67;;;;;;;;;;4876703;29;20037;-70
2021/05/23 14:01:36;;;;;;;3.63;2.05;;;;;;;;;;4876369;29;20116;-72
2021/05/23 14:04:02;;;;;;;5.20;2.20;;;;;;;;;;4876632;29;20469;-72
2021/05/23 14:06:29;;;;;;;4.10;1.80;;;;;;;;;;4876896;29;20072;-68
2021/05/23 14:08:55;;;;;;;5.07;1.38;;;;;;;;;;4876705;29;20021;-68
2021/05/23 14:11:21;;;;;;;4.38;1.52;;;;;;;;;;4876602;29;20092;-72
2021/05/23 14:13:47;;;;;;;4.10;1.95;;;;;;;;;;4879080;29;20029;-64
2021/05/23 14:16:13;;;;;;;3.78;2.00;;;;;;;;;;4880330;29;20033;-72
2021/05/23 14:18:39;;;;;;;3.22;1.75;;;;;;;;;;4879927;29;20520;-72
2021/05/23 14:21:10;;;;;;;4.28;1.80;;;;;;;;;;4880166;29;20025;-72
2021/05/23 14:23:36;;;;;;;3.30;1.80;;;;;;;;;;4879919;29;20111;-64
2021/05/23 14:26:03;;;;;;;5.18;1.85;;;;;;;;;;4880000;29;20275;-64
2021/05/23 14:28:29;;;;;;;4.80;1.80;;;;;;;;;;4879697;29;20033;-64
2021/05/23 14:30:55;;;;;;;3.55;1.80;;;;;;;;;;4879827;29;20028;-64
2021/05/23 14:33:23;;;;;;;5.28;2.50;;;;;;;;;;4879817;29;20053;-72
2021/05/23 14:35:49;;;;;;;4.22;2.40;;;;;;;;;;4879589;29;20497;-69
2021/05/23 14:38:15;;;;;;;6.28;2.50;;;;;;;;;;4879388;29;20047;-64
2021/05/23 14:40:42;;;;;;;7.20;2.50;;;;;;;;;;4879777;29;20036;-65
2021/05/23 14:43:08;;;;;;;8.73;2.40;;;;;;;;;;4879370;29;20041;-64